createdAt,value
2019-01-19T00:00:52.505Z,11.73
2019-01-19T00:03:41.234Z,12.13
2019-01-19T00:06:28.253Z,12.40
2019-01-19T00:09:01.984Z,12.27
2019-01-19T00:11:59.260Z,12.67
2019-01-19T00:14:30.179Z,13.00
2019-01-19T00:17:05.019Z,13.87
2019-01-19T00:19:56.462Z,12.83
2019-01-19T00:22:36.056Z,13.33
2019-01-19T00:25:08.491Z,13.33
2019-01-19T00:27:47.545Z,13.30
2019-01-19T00:30:31.654Z,13.00
2019-01-19T00:33:35.535Z,12.83
2019-01-19T00:36:10.794Z,13.07
2019-01-19T00:39:04.323Z,12.63
2019-01-19T00:41:57.276Z,13.83
2019-01-19T00:44:47.573Z,13.27
2019-01-19T00:47:38.702Z,13.50
2019-01-19T00:50:39.130Z,12.97
2019-01-19T00:53:11.560Z,13.10
2019-01-19T00:55:49.714Z,11.93
2019-01-19T00:58:29.221Z,11.83
2019-01-19T01:01:01.651Z,11.97
2019-01-19T01:03:43.652Z,12.07
2019-01-19T01:06:49.976Z,11.97
2019-01-19T01:09:57.345Z,11.80
2019-01-19T01:12:46.733Z,11.40
2019-01-19T01:15:36.960Z,10.87
2019-01-19T01:18:36.478Z,12.00
2019-01-19T01:21:08.887Z,10.80
2019-01-19T01:23:58.834Z,11.33
2019-01-19T01:26:34.781Z,11.50
2019-01-19T01:29:29.417Z,11.13
2019-01-19T01:32:20.867Z,10.67
2019-01-19T01:35:10.996Z,10.80
2019-01-19T01:37:43.747Z,10.83
2019-01-19T01:40:25.997Z,10.70
2019-01-19T01:43:06.994Z,10.50
2019-01-19T01:45:46.411Z,10.57
2019-01-19T01:48:36.861Z,11.20
2019-01-19T01:51:27.575Z,10.77
2019-01-19T01:54:18.084Z,10.10
2019-01-19T01:56:47.607Z,10.93
2019-01-19T01:59:20.126Z,10.30
2019-01-19T02:02:05.054Z,10.27
2019-01-19T02:04:45.980Z,11.33
2019-01-19T02:07:22.388Z,11.03
2019-01-19T02:10:15.309Z,11.30
2019-01-19T02:12:47.733Z,10.50
2019-01-19T02:15:28.799Z,10.60
2019-01-19T02:18:04.030Z,10.50
2019-01-19T02:20:58.591Z,10.40
2019-01-19T02:23:36.216Z,10.13
2019-01-19T02:26:26.639Z,10.27
2019-01-19T02:29:16.529Z,9.73
2019-01-19T02:31:49.205Z,9.87
2019-01-19T02:34:33.535Z,9.73
2019-01-19T02:37:23.779Z,9.37
2019-01-19T02:40:10.706Z,8.97
2019-01-19T02:42:49.716Z,9.33
2019-01-19T02:45:44.164Z,9.30
2019-01-19T02:48:36.885Z,9.03
2019-01-19T02:51:27.088Z,8.83
2019-01-19T02:54:19.295Z,9.50
2019-01-19T02:56:54.558Z,9.70
2019-01-19T02:59:30.781Z,8.70
2019-01-19T03:02:15.062Z,8.50
2019-01-19T03:04:56.121Z,8.33
2019-01-19T03:07:38.527Z,9.50
2019-01-19T03:10:36.071Z,8.63
2019-01-19T03:13:28.749Z,9.53
2019-01-19T03:16:14.267Z,10.37
2019-01-19T03:18:52.337Z,9.47
2019-01-19T03:21:31.567Z,9.03
2019-01-19T03:24:04.084Z,8.77
2019-01-19T03:26:36.493Z,8.13
2019-01-19T03:29:21.538Z,8.63
2019-01-19T03:31:54.043Z,9.20
2019-01-19T03:34:38.154Z,8.37
2019-01-19T03:37:28.423Z,8.90
2019-01-19T03:40:17.755Z,8.97
2019-01-19T03:42:52.647Z,8.93
2019-01-19T03:45:36.729Z,8.57
2019-01-19T03:48:14.980Z,9.43
2019-01-19T03:50:59.040Z,8.37
2019-01-19T03:53:52.370Z,8.93
2019-01-19T03:56:24.785Z,9.50
2019-01-19T03:59:25.574Z,8.80
2019-01-19T04:02:14.435Z,9.67
2019-01-19T04:04:55.704Z,9.77
2019-01-19T04:07:34.180Z,9.53
2019-01-19T04:10:21.339Z,8.90
2019-01-19T04:12:59.826Z,9.27
2019-01-19T04:15:58.764Z,9.20
2019-01-19T04:18:49.010Z,8.57
2019-01-19T04:21:36.462Z,9.23
2019-01-19T04:24:11.978Z,9.27
2019-01-19T04:26:41.271Z,9.07
2019-01-19T04:29:11.516Z,9.53
2019-01-19T04:31:40.758Z,8.87
2019-01-19T04:34:10.083Z,9.37
2019-01-19T04:36:41.420Z,9.33
2019-01-19T04:39:10.957Z,8.70
2019-01-19T04:41:40.431Z,8.57
2019-01-19T04:44:10.581Z,9.37
2019-01-19T04:46:39.912Z,9.27
2019-01-19T04:49:10.678Z,8.77
2019-01-19T04:51:39.935Z,9.13
2019-01-19T04:54:09.184Z,8.73
2019-01-19T04:56:38.436Z,9.00
2019-01-19T04:59:07.696Z,8.90
2019-01-19T05:01:36.921Z,9.10
2019-01-19T05:04:06.175Z,9.10
2019-01-19T05:06:35.434Z,8.47
2019-01-19T05:09:06.671Z,8.83
2019-01-19T05:11:35.907Z,7.70
2019-01-19T05:14:05.231Z,8.50
2019-01-19T05:16:35.492Z,8.77
2019-01-19T05:19:04.803Z,9.23
2019-01-19T05:21:35.057Z,8.60
2019-01-19T05:24:04.458Z,8.20
2019-01-19T05:26:33.713Z,8.30
2019-01-19T05:29:02.954Z,8.43
2019-01-19T05:31:32.200Z,7.97
2019-01-19T05:34:01.432Z,7.80
2019-01-19T05:36:38.263Z,7.90
2019-01-19T05:39:02.566Z,8.03
2019-01-19T05:41:31.811Z,6.90
2019-01-19T05:44:01.146Z,7.67
2019-01-19T05:46:30.366Z,7.37
2019-01-19T05:48:59.613Z,7.43
2019-01-19T05:51:28.878Z,7.13
2019-01-19T05:53:58.135Z,6.93
2019-01-19T05:56:29.276Z,7.73
2019-01-19T05:58:58.592Z,7.40
2019-01-19T06:01:28.352Z,7.50
2019-01-19T06:03:58.564Z,7.73
2019-01-19T06:06:28.820Z,7.07
2019-01-19T06:08:58.077Z,6.60
2019-01-19T06:11:27.406Z,6.70
2019-01-19T06:13:56.667Z,6.13
2019-01-19T06:16:25.902Z,6.37
2019-01-19T06:18:55.441Z,6.60
2019-01-19T06:21:27.659Z,6.20
2019-01-19T06:23:57.853Z,5.63
2019-01-19T06:26:28.081Z,5.33
2019-01-19T06:28:57.321Z,5.60
2019-01-19T06:31:26.556Z,5.33
2019-01-19T06:33:57.747Z,5.27
2019-01-19T06:36:27.953Z,5.80
2019-01-19T06:38:57.194Z,5.57
2019-01-19T06:41:26.426Z,5.13
2019-01-19T06:43:55.652Z,5.50
2019-01-19T06:46:24.915Z,5.50
2019-01-19T06:48:54.148Z,4.90
2019-01-19T06:51:23.383Z,5.10
2019-01-19T06:53:53.152Z,4.50
2019-01-19T06:56:23.385Z,5.47
2019-01-19T06:58:52.627Z,5.20
2019-01-19T07:01:21.883Z,5.23
2019-01-19T07:03:51.118Z,5.40
2019-01-19T07:06:20.555Z,5.30
2019-01-19T07:08:49.826Z,5.40
2019-01-19T07:11:19.170Z,5.67
2019-01-19T07:13:48.446Z,5.50
2019-01-19T07:16:18.755Z,5.73
2019-01-19T07:18:47.975Z,5.30
2019-01-19T07:21:17.231Z,8.30
2019-01-19T07:23:46.469Z,5.63
2019-01-19T07:26:15.701Z,5.07
2019-01-19T07:28:44.926Z,5.07
2019-01-19T07:31:14.160Z,4.93
2019-01-19T07:33:43.412Z,5.07
2019-01-19T07:36:12.635Z,5.10
2019-01-19T07:38:41.867Z,4.53
2019-01-19T07:41:11.101Z,5.03
2019-01-19T07:43:40.528Z,5.40
2019-01-19T07:46:10.852Z,4.93
2019-01-19T07:48:40.105Z,5.23
2019-01-19T07:51:09.345Z,5.47
2019-01-19T07:53:40.589Z,4.63
2019-01-19T07:56:11.824Z,4.97
2019-01-19T07:58:41.082Z,4.73
2019-01-19T08:01:11.320Z,5.03
2019-01-19T08:03:40.562Z,5.50
2019-01-19T08:06:09.816Z,4.97
2019-01-19T08:08:39.070Z,5.00
2019-01-19T08:11:08.304Z,5.30
2019-01-19T08:13:37.544Z,5.23
2019-01-19T08:16:06.805Z,4.83
2019-01-19T08:18:36.068Z,5.40
2019-01-19T08:21:05.322Z,5.60
2019-01-19T08:23:34.557Z,6.10
2019-01-19T08:26:07.831Z,5.67
2019-01-19T08:28:39.056Z,5.87
2019-01-19T08:31:08.304Z,5.70
2019-01-19T08:33:42.397Z,5.70
2019-01-19T08:36:14.073Z,5.67
2019-01-19T08:38:43.303Z,5.83
2019-01-19T08:41:19.279Z,5.80
2019-01-19T08:43:50.190Z,6.20
2019-01-19T08:46:19.446Z,6.33
2019-01-19T08:48:49.620Z,6.10
2019-01-19T08:51:19.859Z,5.33
2019-01-19T08:53:49.098Z,6.03
2019-01-19T08:56:18.341Z,5.47
2019-01-19T08:58:47.665Z,5.10
2019-01-19T09:01:16.897Z,4.77
2019-01-19T09:03:46.141Z,5.40
2019-01-19T09:06:16.387Z,5.00
2019-01-19T09:08:45.617Z,4.43
2019-01-19T09:11:14.883Z,4.90
2019-01-19T09:13:45.101Z,4.37
2019-01-19T09:16:15.296Z,3.63
2019-01-19T09:18:44.538Z,4.20
2019-01-19T09:21:13.824Z,4.30
2019-01-19T09:23:44.705Z,3.83
2019-01-19T09:26:14.856Z,3.83
2019-01-19T09:28:44.091Z,4.13
2019-01-19T09:31:13.348Z,3.87
2019-01-19T09:33:42.578Z,3.80
2019-01-19T09:36:11.963Z,3.50
2019-01-19T09:38:43.112Z,3.87
2019-01-19T09:41:12.351Z,3.57
2019-01-19T09:43:42.552Z,3.33
2019-01-19T09:46:11.774Z,3.77
2019-01-19T09:48:41.046Z,3.40
2019-01-19T09:51:10.267Z,3.57
2019-01-19T09:53:39.515Z,3.63
2019-01-19T09:56:09.681Z,3.93
2019-01-19T09:58:38.920Z,3.67
2019-01-19T10:01:08.173Z,4.13
2019-01-19T10:03:37.412Z,3.67
2019-01-19T10:06:06.686Z,3.23
2019-01-19T10:08:35.991Z,3.77
2019-01-19T10:11:05.500Z,3.87
2019-01-19T10:13:34.800Z,4.07
2019-01-19T10:16:04.134Z,3.57
2019-01-19T10:18:33.452Z,3.90
2019-01-19T10:21:03.760Z,3.90
2019-01-19T10:23:32.991Z,3.37
2019-01-19T10:26:03.233Z,3.77
2019-01-19T10:28:33.411Z,3.43
2019-01-19T10:31:03.566Z,3.50
2019-01-19T10:33:34.761Z,3.63
2019-01-19T10:36:04.048Z,3.30
2019-01-19T10:38:33.274Z,3.77
2019-01-19T10:41:02.531Z,3.70
2019-01-19T10:43:31.766Z,3.80
2019-01-19T10:46:00.989Z,4.07
2019-01-19T10:48:31.212Z,3.63
2019-01-19T10:51:00.454Z,3.30
2019-01-19T10:53:29.694Z,3.50
2019-01-19T10:55:58.991Z,3.87
2019-01-19T10:58:28.236Z,3.70
2019-01-19T11:00:58.455Z,3.67
2019-01-19T11:03:27.708Z,2.93
2019-01-19T11:05:58.951Z,4.10
2019-01-19T11:08:28.189Z,3.63
2019-01-19T11:10:58.403Z,3.53
2019-01-19T11:13:27.678Z,3.67
2019-01-19T11:15:56.920Z,3.07
2019-01-19T11:18:26.168Z,3.80
2019-01-19T11:20:55.387Z,3.30
2019-01-19T11:23:25.723Z,4.13
2019-01-19T11:25:54.969Z,4.10
2019-01-19T11:28:25.155Z,3.60
2019-01-19T11:30:54.384Z,3.47
2019-01-19T11:33:24.646Z,3.60
2019-01-19T11:35:53.832Z,3.10
2019-01-19T11:38:23.094Z,3.43
2019-01-19T11:40:52.352Z,3.10
2019-01-19T11:43:21.570Z,3.30
2019-01-19T11:45:51.806Z,2.90
2019-01-19T11:48:21.042Z,2.77
2019-01-19T11:50:50.291Z,3.20
2019-01-19T11:53:19.513Z,3.33
2019-01-19T11:55:48.767Z,3.03
2019-01-19T11:58:19.033Z,3.43
2019-01-19T12:00:49.280Z,2.97
2019-01-19T12:03:18.539Z,2.97
2019-01-19T12:05:48.075Z,3.20
2019-01-19T12:08:19.778Z,2.80
2019-01-19T12:10:48.265Z,2.77
2019-01-19T12:13:19.489Z,2.87
2019-01-19T12:15:49.661Z,2.70
2019-01-19T12:18:19.853Z,2.90
2019-01-19T12:20:51.005Z,2.90
2019-01-19T12:23:20.245Z,2.50
2019-01-19T12:25:51.766Z,2.77
2019-01-19T12:28:23.615Z,2.70
2019-01-19T12:30:55.134Z,2.80
2019-01-19T12:33:24.468Z,2.50
2019-01-19T12:35:54.716Z,3.13
2019-01-19T12:38:26.890Z,2.23
2019-01-19T12:40:56.850Z,2.70
2019-01-19T12:43:26.083Z,2.87
2019-01-19T12:45:55.908Z,2.67
2019-01-19T12:48:25.153Z,2.13
2019-01-19T12:50:55.291Z,2.53
2019-01-19T12:53:24.694Z,2.50
2019-01-19T12:55:53.949Z,2.43
2019-01-19T12:58:23.356Z,2.60
2019-01-19T13:00:52.607Z,3.10
2019-01-19T13:03:21.914Z,2.80
2019-01-19T13:05:54.330Z,2.60
2019-01-19T13:08:26.316Z,2.60
2019-01-19T13:11:25.598Z,2.80
2019-01-19T13:13:55.768Z,3.00
2019-01-19T13:16:33.702Z,2.33
2019-01-19T13:19:12.879Z,3.33
2019-01-19T13:22:07.368Z,2.20
2019-01-19T13:25:09.103Z,3.27
2019-01-19T13:27:47.394Z,3.53
2019-01-19T13:30:32.685Z,3.23
2019-01-19T13:33:10.856Z,2.67
2019-01-19T13:35:50.126Z,1.90
2019-01-19T13:38:29.213Z,2.20
2019-01-19T13:41:01.634Z,2.60
2019-01-19T13:43:46.767Z,2.60
2019-01-19T13:46:27.117Z,1.77
2019-01-19T13:49:02.548Z,1.80
2019-01-19T13:51:43.080Z,1.90
2019-01-19T13:54:21.267Z,1.60
2019-01-19T13:57:05.341Z,1.57
2019-01-19T13:59:52.434Z,2.00
2019-01-19T14:02:46.900Z,1.97
2019-01-19T14:05:22.347Z,1.87
2019-01-19T14:08:06.644Z,1.60
2019-01-19T14:11:04.065Z,1.33
2019-01-19T14:13:46.421Z,1.50
2019-01-19T14:16:22.203Z,1.60
2019-01-19T14:19:13.673Z,2.00
2019-01-19T14:21:51.725Z,1.90
2019-01-19T14:24:38.313Z,2.40
2019-01-19T14:27:14.749Z,2.20
2019-01-19T14:29:56.088Z,2.00
2019-01-19T14:32:31.249Z,1.93
2019-01-19T14:35:03.644Z,2.20
2019-01-19T14:37:58.655Z,1.80
2019-01-19T14:40:47.652Z,1.97
2019-01-19T14:43:23.009Z,1.87
2019-01-19T14:46:16.155Z,2.23
2019-01-19T14:49:07.977Z,2.00
2019-01-19T14:51:47.440Z,2.10
2019-01-19T14:54:40.536Z,1.63
2019-01-19T14:57:30.781Z,1.90
2019-01-19T15:00:09.907Z,2.30
2019-01-19T15:03:00.149Z,2.00
2019-01-19T15:05:32.554Z,1.83
2019-01-19T15:08:32.211Z,1.80
2019-01-19T15:11:23.868Z,2.00
2019-01-19T15:14:15.844Z,1.90
2019-01-19T15:17:05.610Z,1.80
2019-01-19T15:19:53.940Z,1.97
2019-01-19T15:22:35.389Z,1.90
2019-01-19T15:25:33.186Z,1.87
2019-01-19T15:28:17.503Z,1.90
2019-01-19T15:30:49.913Z,2.10
2019-01-19T15:33:40.484Z,2.30
2019-01-19T15:36:18.615Z,2.20
2019-01-19T15:38:51.020Z,2.20
2019-01-19T15:41:53.494Z,2.33
2019-01-19T15:44:31.427Z,2.50
2019-01-19T15:47:21.196Z,1.97
2019-01-19T15:50:14.339Z,1.97
2019-01-19T15:52:55.619Z,3.00
2019-01-19T15:55:33.858Z,2.10
2019-01-19T15:58:15.199Z,3.10
2019-01-19T16:00:56.472Z,2.57
2019-01-19T16:03:48.304Z,2.70
2019-01-19T16:06:26.288Z,2.40
2019-01-19T16:09:19.802Z,3.27
2019-01-19T16:12:08.143Z,3.53
2019-01-19T16:15:07.389Z,3.10
2019-01-19T16:17:56.449Z,3.00
2019-01-19T16:20:31.795Z,3.43
2019-01-19T16:23:25.244Z,3.37
2019-01-19T16:26:09.569Z,3.80
2019-01-19T16:29:07.505Z,3.53
2019-01-19T16:32:08.114Z,3.60
2019-01-19T16:35:03.115Z,3.50
2019-01-19T16:37:51.470Z,3.60
2019-01-19T16:40:29.413Z,4.50
2019-01-19T16:43:19.849Z,4.10
2019-01-19T16:46:07.062Z,4.40
2019-01-19T16:48:51.864Z,4.70
2019-01-19T16:51:35.968Z,4.40
2019-01-19T16:54:11.016Z,4.47
2019-01-19T16:56:55.410Z,3.90
2019-01-19T16:59:43.138Z,4.23
2019-01-19T17:02:21.622Z,4.23
2019-01-19T17:05:21.101Z,4.53
2019-01-19T17:08:05.487Z,3.83
2019-01-19T17:10:58.389Z,3.97
2019-01-19T17:13:49.488Z,4.40
2019-01-19T17:16:25.909Z,3.87
2019-01-19T17:19:01.118Z,4.23
2019-01-19T17:22:01.547Z,4.63
2019-01-19T17:25:07.502Z,4.47
2019-01-19T17:27:45.698Z,4.43
2019-01-19T17:30:28.459Z,4.93
2019-01-19T17:33:21.598Z,5.00
2019-01-19T17:36:06.923Z,4.53
2019-01-19T17:38:45.055Z,4.97
2019-01-19T17:41:30.116Z,4.90
2019-01-19T17:44:14.437Z,4.77
2019-01-19T17:47:21.595Z,5.07
2019-01-19T17:50:27.748Z,5.73
2019-01-19T17:53:03.961Z,5.33
2019-01-19T17:55:39.157Z,5.27
2019-01-19T17:58:32.795Z,5.07
2019-01-19T18:01:23.190Z,5.30
2019-01-19T18:03:56.559Z,5.33
2019-01-19T18:06:42.600Z,5.57
2019-01-19T18:09:25.893Z,5.27
2019-01-19T18:12:00.806Z,6.30
2019-01-19T18:14:51.187Z,6.30
2019-01-19T18:17:32.852Z,6.47
2019-01-19T18:20:17.292Z,6.30
2019-01-19T18:22:53.464Z,6.10
2019-01-19T18:25:51.088Z,8.07
2019-01-19T18:28:33.653Z,6.53
2019-01-19T18:31:20.598Z,6.67
2019-01-19T18:34:11.076Z,6.87
2019-01-19T18:37:02.882Z,7.10
2019-01-19T18:39:35.461Z,7.27
2019-01-19T18:42:16.766Z,9.17
2019-01-19T18:45:08.869Z,8.30
2019-01-19T18:47:52.885Z,7.70
2019-01-19T18:50:45.449Z,7.50
2019-01-19T18:53:43.429Z,7.70
2019-01-19T18:56:49.904Z,7.40
2019-01-19T18:59:41.084Z,7.57
2019-01-19T19:02:16.245Z,7.50
2019-01-19T19:05:00.812Z,8.23
2019-01-19T19:07:48.938Z,7.33
2019-01-19T19:10:32.897Z,7.57
2019-01-19T19:13:19.965Z,7.23
2019-01-19T19:16:08.254Z,8.23
2019-01-19T19:18:46.252Z,6.87
2019-01-19T19:21:38.915Z,7.80
2019-01-19T19:24:23.188Z,9.47
2019-01-19T19:27:04.729Z,9.00
2019-01-19T19:29:55.945Z,7.70
2019-01-19T19:32:43.206Z,10.03
2019-01-19T19:35:19.506Z,9.97
2019-01-19T19:37:57.911Z,9.77
2019-01-19T19:41:00.442Z,10.40
2019-01-19T19:43:42.694Z,10.00
2019-01-19T19:46:27.800Z,9.80
2019-01-19T19:49:08.946Z,10.13
2019-01-19T19:51:55.258Z,9.83
2019-01-19T19:54:24.594Z,10.40
2019-01-19T19:56:53.831Z,9.30
2019-01-19T19:59:23.107Z,9.00
2019-01-19T20:01:52.484Z,9.33
2019-01-19T20:04:22.682Z,10.13
2019-01-19T20:06:51.916Z,9.93
2019-01-19T20:09:21.221Z,10.20
2019-01-19T20:11:50.723Z,10.30
2019-01-19T20:14:20.022Z,10.20
2019-01-19T20:16:50.215Z,9.80
2019-01-19T20:19:19.449Z,9.53
2019-01-19T20:21:48.791Z,9.97
2019-01-19T20:24:18.039Z,9.50
2019-01-19T20:26:47.288Z,9.80
2019-01-19T20:29:17.529Z,9.10
2019-01-19T20:31:46.868Z,9.80
2019-01-19T20:34:16.088Z,9.93
2019-01-19T20:36:45.337Z,9.67
2019-01-19T20:39:14.576Z,9.37
2019-01-19T20:41:44.739Z,9.53
2019-01-19T20:44:13.993Z,9.53
2019-01-19T20:46:43.232Z,9.43
2019-01-19T20:49:12.492Z,9.57
2019-01-19T20:51:41.729Z,10.30
2019-01-19T20:54:11.951Z,9.67
2019-01-19T20:56:41.207Z,10.03
2019-01-19T20:59:10.451Z,7.73
2019-01-19T21:01:40.585Z,8.67
2019-01-19T21:04:15.737Z,9.50
2019-01-19T21:06:42.678Z,9.47
2019-01-19T21:09:11.990Z,11.47
2019-01-19T21:11:41.241Z,10.23
2019-01-19T21:14:10.512Z,10.13
2019-01-19T21:16:39.755Z,11.40
2019-01-19T21:19:09.084Z,12.10
2019-01-19T21:21:39.313Z,10.67
2019-01-19T21:24:08.580Z,10.10
2019-01-19T21:26:37.873Z,10.47
2019-01-19T21:29:07.133Z,10.83
2019-01-19T21:31:38.351Z,9.93
2019-01-19T21:34:08.612Z,10.67
2019-01-19T21:36:38.786Z,9.90
2019-01-19T21:39:08.030Z,10.30
2019-01-19T21:41:37.362Z,10.80
2019-01-19T21:44:06.637Z,10.07
2019-01-19T21:46:35.885Z,10.80
2019-01-19T21:49:06.123Z,10.23
2019-01-19T21:51:35.376Z,9.97
2019-01-19T21:54:04.992Z,10.47
2019-01-19T21:56:35.243Z,10.17
2019-01-19T21:59:08.523Z,10.37
2019-01-19T22:01:38.673Z,10.27
2019-01-19T22:04:08.864Z,9.67
2019-01-19T22:06:39.108Z,10.73
2019-01-19T22:09:08.519Z,9.97
2019-01-19T22:11:37.782Z,11.93
2019-01-19T22:14:07.079Z,11.10
2019-01-19T22:16:36.343Z,11.70
2019-01-19T22:19:05.594Z,10.23
2019-01-19T22:21:34.851Z,10.30
2019-01-19T22:24:04.200Z,9.63
2019-01-19T22:26:33.931Z,10.00
2019-01-19T22:29:03.196Z,10.47
2019-01-19T22:31:33.425Z,10.53
2019-01-19T22:34:03.699Z,11.03
2019-01-19T22:36:34.916Z,10.60
2019-01-19T22:39:06.033Z,10.50
2019-01-19T22:41:36.454Z,9.93
2019-01-19T22:44:05.778Z,9.97
2019-01-19T22:46:35.030Z,10.57
2019-01-19T22:49:04.438Z,8.90
2019-01-19T22:51:33.695Z,10.00
2019-01-19T22:54:02.962Z,10.00
2019-01-19T22:56:34.126Z,10.07
2019-01-19T22:59:03.439Z,9.90
2019-01-19T23:01:35.254Z,9.77
2019-01-19T23:04:04.779Z,9.60
2019-01-19T23:06:35.923Z,9.40
2019-01-19T23:09:08.790Z,10.10
2019-01-19T23:11:40.129Z,9.60
2019-01-19T23:14:10.625Z,10.63
2019-01-19T23:16:39.940Z,10.17
2019-01-19T23:19:09.208Z,10.30
2019-01-19T23:21:38.448Z,9.83
2019-01-19T23:24:08.154Z,11.03
2019-01-19T23:26:37.672Z,10.73
2019-01-19T23:29:06.929Z,10.17
2019-01-19T23:31:36.155Z,9.40
2019-01-19T23:34:06.411Z,9.53
2019-01-19T23:36:35.708Z,9.73
2019-01-19T23:39:07.457Z,8.40
2019-01-19T23:41:36.713Z,8.10
2019-01-19T23:44:05.960Z,8.33
2019-01-19T23:46:36.271Z,7.60
2019-01-19T23:49:05.515Z,7.13
2019-01-19T23:51:34.753Z,6.90
2019-01-19T23:54:04.269Z,6.37
2019-01-19T23:56:33.516Z,6.07
2019-01-19T23:59:02.765Z,5.53
